sensor_id;sensor_type;location;lat;lon;timestamp;P1;durP1;ratioP1;P2;durP2;ratioP2
66437;SDS011;54537;47.972;11.662;2022-08-19T02:50:13;9.02;;;3.75;;
66437;SDS011;54537;47.972;11.662;2022-08-19T02:52:39;8.93;;;5.57;;
66437;SDS011;54537;47.972;11.662;2022-08-19T02:55:06;7.88;;;4.45;;
66437;SDS011;54537;47.972;11.662;2022-08-19T02:57:32;7.57;;;4.30;;
66437;SDS011;54537;47.972;11.662;2022-08-19T02:59:59;8.23;;;4.20;;
66437;SDS011;54537;47.972;11.662;2022-08-19T03:02:26;9.57;;;4.18;;
66437;SDS011;54537;47.972;11.662;2022-08-19T03:04:52;7.00;;;4.10;;
66437;SDS011;54537;47.972;11.662;2022-08-19T03:07:20;8.05;;;4.05;;
66437;SDS011;54537;47.972;11.662;2022-08-19T03:09:46;7.47;;;4.00;;
66437;SDS011;54537;47.972;11.662;2022-08-19T03:12:12;7.70;;;3.85;;
66437;SDS011;54537;47.972;11.662;2022-08-19T03:14:39;8.93;;;4.75;;
66437;SDS011;54537;47.972;11.662;2022-08-19T03:17:06;8.75;;;4.07;;
66437;SDS011;54537;47.972;11.662;2022-08-19T03:19:33;9.15;;;3.92;;
66437;SDS011;54537;47.972;11.662;2022-08-19T03:21:59;8.15;;;3.85;;
66437;SDS011;54537;47.972;11.662;2022-08-19T03:24:27;7.38;;;3.72;;
66437;SDS011;54537;47.972;11.662;2022-08-19T03:26:54;8.25;;;4.13;;
66437;SDS011;54537;47.972;11.662;2022-08-19T03:29:22;7.47;;;3.75;;
66437;SDS011;54537;47.972;11.662;2022-08-19T03:31:49;7.18;;;3.45;;
66437;SDS011;54537;47.972;11.662;2022-08-19T03:34:18;7.32;;;3.80;;
66437;SDS011;54537;47.972;11.662;2022-08-19T03:36:45;8.45;;;3.80;;
66437;SDS011;54537;47.972;11.662;2022-08-19T03:39:11;8.20;;;4.07;;
66437;SDS011;54537;47.972;11.662;2022-08-19T19:26:59;15.30;;;6.95;;
66437;SDS011;54537;47.972;11.662;2022-08-19T19:29:29;15.93;;;7.95;;
66437;SDS011;54537;47.972;11.662;2022-08-19T19:31:55;18.02;;;8.27;;
66437;SDS011;54537;47.972;11.662;2022-08-19T19:34:21;18.42;;;8.75;;
66437;SDS011;54537;47.972;11.662;2022-08-19T19:36:48;19.48;;;8.90;;
66437;SDS011;54537;47.972;11.662;2022-08-19T19:39:15;19.95;;;8.93;;
66437;SDS011;54537;47.972;11.662;2022-08-19T19:41:42;21.30;;;9.75;;
66437;SDS011;54537;47.972;11.662;2022-08-19T19:44:10;17.42;;;8.85;;
66437;SDS011;54537;47.972;11.662;2022-08-19T19:46:36;18.10;;;9.63;;
66437;SDS011;54537;47.972;11.662;2022-08-19T19:49:03;24.65;;;10.57;;
66437;SDS011;54537;47.972;11.662;2022-08-19T19:51:30;20.52;;;10.25;;
66437;SDS011;54537;47.972;11.662;2022-08-19T19:53:57;21.08;;;9.75;;
66437;SDS011;54537;47.972;11.662;2022-08-19T19:56:23;25.75;;;10.10;;
66437;SDS011;54537;47.972;11.662;2022-08-19T19:58:50;23.80;;;10.35;;
66437;SDS011;54537;47.972;11.662;2022-08-19T20:01:18;19.73;;;9.15;;
66437;SDS011;54537;47.972;11.662;2022-08-19T20:03:45;17.23;;;9.60;;
66437;SDS011;54537;47.972;11.662;2022-08-19T20:06:12;22.73;;;10.38;;
66437;SDS011;54537;47.972;11.662;2022-08-19T20:08:38;19.70;;;9.93;;
66437;SDS011;54537;47.972;11.662;2022-08-19T20:11:26;20.75;;;9.80;;
66437;SDS011;54537;47.972;11.662;2022-08-19T20:13:55;21.33;;;10.68;;
66437;SDS011;54537;47.972;11.662;2022-08-19T20:16:23;19.65;;;10.93;;
66437;SDS011;54537;47.972;11.662;2022-08-19T20:18:49;21.02;;;10.15;;
66437;SDS011;54537;47.972;11.662;2022-08-19T20:21:16;19.75;;;9.63;;
66437;SDS011;54537;47.972;11.662;2022-08-19T20:23:42;19.92;;;9.90;;
66437;SDS011;54537;47.972;11.662;2022-08-19T20:26:08;21.02;;;9.95;;
66437;SDS011;54537;47.972;11.662;2022-08-19T20:28:35;20.45;;;10.38;;
66437;SDS011;54537;47.972;11.662;2022-08-19T20:31:01;21.60;;;10.68;;
66437;SDS011;54537;47.972;11.662;2022-08-19T20:33:29;23.60;;;11.13;;
66437;SDS011;54537;47.972;11.662;2022-08-19T20:35:55;21.50;;;10.50;;
66437;SDS011;54537;47.972;11.662;2022-08-19T20:38:21;25.83;;;11.85;;
66437;SDS011;54537;47.972;11.662;2022-08-19T20:40:48;22.42;;;11.35;;
66437;SDS011;54537;47.972;11.662;2022-08-19T20:43:15;23.17;;;14.35;;
66437;SDS011;54537;47.972;11.662;2022-08-19T20:45:41;22.38;;;14.32;;
66437;SDS011;54537;47.972;11.662;2022-08-19T20:48:07;22.80;;;14.15;;
66437;SDS011;54537;47.972;11.662;2022-08-19T20:50:37;22.17;;;13.57;;
66437;SDS011;54537;47.972;11.662;2022-08-19T20:53:07;20.05;;;12.98;;
66437;SDS011;54537;47.972;11.662;2022-08-19T20:55:34;20.45;;;13.02;;
66437;SDS011;54537;47.972;11.662;2022-08-19T20:58:00;19.87;;;13.07;;
66437;SDS011;54537;47.972;11.662;2022-08-19T21:00:27;21.17;;;13.25;;
66437;SDS011;54537;47.972;11.662;2022-08-19T21:02:54;20.90;;;12.95;;
66437;SDS011;54537;47.972;11.662;2022-08-19T21:05:20;22.05;;;12.98;;
66437;SDS011;54537;47.972;11.662;2022-08-19T21:07:48;20.13;;;12.80;;
66437;SDS011;54537;47.972;11.662;2022-08-19T21:10:14;19.20;;;12.77;;
66437;SDS011;54537;47.972;11.662;2022-08-19T21:12:41;19.13;;;12.45;;
66437;SDS011;54537;47.972;11.662;2022-08-19T21:15:08;21.17;;;13.18;;
66437;SDS011;54537;47.972;11.662;2022-08-19T21:17:35;22.83;;;13.15;;
66437;SDS011;54537;47.972;11.662;2022-08-19T21:20:02;19.33;;;12.90;;
66437;SDS011;54537;47.972;11.662;2022-08-19T21:22:28;22.03;;;13.27;;
66437;SDS011;54537;47.972;11.662;2022-08-19T21:24:56;20.60;;;12.97;;
66437;SDS011;54537;47.972;11.662;2022-08-19T21:27:22;20.75;;;12.57;;
66437;SDS011;54537;47.972;11.662;2022-08-19T21:29:49;19.17;;;12.30;;
66437;SDS011;54537;47.972;11.662;2022-08-19T21:32:15;17.88;;;11.75;;
66437;SDS011;54537;47.972;11.662;2022-08-19T21:34:43;18.95;;;12.25;;
66437;SDS011;54537;47.972;11.662;2022-08-19T21:37:12;19.05;;;12.25;;
66437;SDS011;54537;47.972;11.662;2022-08-19T21:39:38;17.98;;;12.15;;
66437;SDS011;54537;47.972;11.662;2022-08-19T21:42:06;19.30;;;12.25;;
66437;SDS011;54537;47.972;11.662;2022-08-19T21:44:33;19.55;;;12.35;;
66437;SDS011;54537;47.972;11.662;2022-08-19T21:47:00;17.88;;;12.13;;
66437;SDS011;54537;47.972;11.662;2022-08-19T21:49:26;18.55;;;12.43;;
66437;SDS011;54537;47.972;11.662;2022-08-19T21:51:53;21.05;;;12.77;;
66437;SDS011;54537;47.972;11.662;2022-08-19T21:54:19;19.17;;;12.60;;
66437;SDS011;54537;47.972;11.662;2022-08-19T21:56:45;18.67;;;12.57;;
66437;SDS011;54537;47.972;11.662;2022-08-19T21:59:13;19.63;;;12.77;;
66437;SDS011;54537;47.972;11.662;2022-08-19T22:01:40;20.23;;;13.45;;
66437;SDS011;54537;47.972;11.662;2022-08-19T22:04:07;19.33;;;12.80;;
66437;SDS011;54537;47.972;11.662;2022-08-19T22:06:33;19.73;;;13.18;;
66437;SDS011;54537;47.972;11.662;2022-08-19T22:09:00;19.50;;;13.13;;
66437;SDS011;54537;47.972;11.662;2022-08-19T22:11:26;19.67;;;12.87;;
66437;SDS011;54537;47.972;11.662;2022-08-19T22:13:53;21.17;;;14.63;;
66437;SDS011;54537;47.972;11.662;2022-08-19T22:16:22;20.42;;;13.30;;
66437;SDS011;54537;47.972;11.662;2022-08-19T22:18:48;20.73;;;13.63;;
66437;SDS011;54537;47.972;11.662;2022-08-19T22:21:16;20.15;;;13.77;;
66437;SDS011;54537;47.972;11.662;2022-08-19T22:23:43;20.85;;;13.85;;
66437;SDS011;54537;47.972;11.662;2022-08-19T22:26:09;20.58;;;14.10;;
66437;SDS011;54537;47.972;11.662;2022-08-19T22:28:36;21.52;;;13.93;;
66437;SDS011;54537;47.972;11.662;2022-08-19T22:31:02;23.17;;;14.55;;
66437;SDS011;54537;47.972;11.662;2022-08-19T22:33:31;23.10;;;14.75;;
66437;SDS011;54537;47.972;11.662;2022-08-19T22:35:57;22.20;;;15.30;;
66437;SDS011;54537;47.972;11.662;2022-08-19T22:38:24;24.23;;;15.55;;
66437;SDS011;54537;47.972;11.662;2022-08-19T22:40:51;24.52;;;15.50;;
66437;SDS011;54537;47.972;11.662;2022-08-19T22:43:19;24.80;;;16.33;;
66437;SDS011;54537;47.972;11.662;2022-08-19T22:45:46;25.05;;;16.40;;
66437;SDS011;54537;47.972;11.662;2022-08-19T22:48:13;24.10;;;16.93;;
66437;SDS011;54537;47.972;11.662;2022-08-19T22:50:42;23.33;;;15.93;;
66437;SDS011;54537;47.972;11.662;2022-08-19T22:53:29;24.83;;;16.23;;
66437;SDS011;54537;47.972;11.662;2022-08-19T22:55:54;22.75;;;15.23;;
66437;SDS011;54537;47.972;11.662;2022-08-19T22:58:20;22.60;;;15.02;;
66437;SDS011;54537;47.972;11.662;2022-08-19T23:00:47;21.80;;;15.15;;
66437;SDS011;54537;47.972;11.662;2022-08-19T23:03:13;20.87;;;14.07;;
66437;SDS011;54537;47.972;11.662;2022-08-19T23:05:41;21.60;;;14.35;;
66437;SDS011;54537;47.972;11.662;2022-08-19T23:08:07;20.23;;;13.38;;
66437;SDS011;54537;47.972;11.662;2022-08-19T23:10:34;18.67;;;13.02;;
66437;SDS011;54537;47.972;11.662;2022-08-19T23:13:00;19.08;;;13.13;;
66437;SDS011;54537;47.972;11.662;2022-08-19T23:15:28;18.08;;;12.48;;
66437;SDS011;54537;47.972;11.662;2022-08-19T23:17:55;16.95;;;11.55;;
66437;SDS011;54537;47.972;11.662;2022-08-19T23:20:22;18.10;;;11.60;;
66437;SDS011;54537;47.972;11.662;2022-08-19T23:22:52;17.15;;;10.90;;
66437;SDS011;54537;47.972;11.662;2022-08-19T23:25:20;17.90;;;11.65;;
66437;SDS011;54537;47.972;11.662;2022-08-19T23:27:46;16.27;;;10.80;;
66437;SDS011;54537;47.972;11.662;2022-08-19T23:30:31;16.42;;;11.30;;
66437;SDS011;54537;47.972;11.662;2022-08-19T23:32:59;15.65;;;10.93;;
66437;SDS011;54537;47.972;11.662;2022-08-19T23:35:25;15.87;;;11.13;;
66437;SDS011;54537;47.972;11.662;2022-08-19T23:37:53;15.82;;;11.10;;
66437;SDS011;54537;47.972;11.662;2022-08-19T23:40:21;17.30;;;11.55;;
66437;SDS011;54537;47.972;11.662;2022-08-19T23:42:47;16.48;;;11.45;;
66437;SDS011;54537;47.972;11.662;2022-08-19T23:45:14;17.85;;;11.75;;
66437;SDS011;54537;47.972;11.662;2022-08-19T23:47:41;16.27;;;11.27;;
66437;SDS011;54537;47.972;11.662;2022-08-19T23:50:08;17.43;;;10.87;;
66437;SDS011;54537;47.972;11.662;2022-08-19T23:52:41;16.10;;;11.27;;
66437;SDS011;54537;47.972;11.662;2022-08-19T23:55:09;16.33;;;11.30;;
66437;SDS011;54537;47.972;11.662;2022-08-19T23:57:35;15.75;;;10.75;;
